sensor_id;sensor_type;location;lat;lon;timestamp;temperature;humidity
19200;DHT22;9732;52.498;5.408;2023-04-25T00:00:08;8.40;99.90
19200;DHT22;9732;52.498;5.408;2023-04-25T00:02:35;8.30;99.90
19200;DHT22;9732;52.498;5.408;2023-04-25T00:05:02;8.30;99.90
19200;DHT22;9732;52.498;5.408;2023-04-25T00:07:31;8.30;99.90
19200;DHT22;9732;52.498;5.408;2023-04-25T00:09:58;8.20;99.90
19200;DHT22;9732;52.498;5.408;2023-04-25T00:12:25;8.20;99.90
19200;DHT22;9732;52.498;5.408;2023-04-25T00:14:53;8.20;99.90
19200;DHT22;9732;52.498;5.408;2023-04-25T00:17:22;8.30;99.90
19200;DHT22;9732;52.498;5.408;2023-04-25T00:19:49;8.30;99.90
19200;DHT22;9732;52.498;5.408;2023-04-25T00:22:17;8.30;99.90
19200;DHT22;9732;52.498;5.408;2023-04-25T00:24:45;8.30;99.90
19200;DHT22;9732;52.498;5.408;2023-04-25T00:27:11;8.30;99.90
19200;DHT22;9732;52.498;5.408;2023-04-25T00:29:38;8.40;99.90
19200;DHT22;9732;52.498;5.408;2023-04-25T00:32:05;8.40;99.90
19200;DHT22;9732;52.498;5.408;2023-04-25T00:34:31;8.30;99.90
19200;DHT22;9732;52.498;5.408;2023-04-25T00:36:58;8.30;99.90
19200;DHT22;9732;52.498;5.408;2023-04-25T00:39:27;8.30;99.90
19200;DHT22;9732;52.498;5.408;2023-04-25T00:41:55;8.20;99.90
19200;DHT22;9732;52.498;5.408;2023-04-25T00:44:22;8.20;99.90
19200;DHT22;9732;52.498;5.408;2023-04-25T00:46:50;8.30;99.90
19200;DHT22;9732;52.498;5.408;2023-04-25T00:49:17;8.30;99.90
19200;DHT22;9732;52.498;5.408;2023-04-25T00:51:44;8.20;99.90
19200;DHT22;9732;52.498;5.408;2023-04-25T00:54:11;8.20;99.90
19200;DHT22;9732;52.498;5.408;2023-04-25T00:56:38;8.20;99.90
19200;DHT22;9732;52.498;5.408;2023-04-25T00:59:07;8.20;99.90
19200;DHT22;9732;52.498;5.408;2023-04-25T01:01:35;8.10;99.90
19200;DHT22;9732;52.498;5.408;2023-04-25T01:04:03;8.10;99.90
19200;DHT22;9732;52.498;5.408;2023-04-25T01:06:30;8.00;99.90
19200;DHT22;9732;52.498;5.408;2023-04-25T01:08:59;8.00;99.90
19200;DHT22;9732;52.498;5.408;2023-04-25T01:11:26;8.00;99.90
19200;DHT22;9732;52.498;5.408;2023-04-25T01:13:52;8.10;99.90
19200;DHT22;9732;52.498;5.408;2023-04-25T01:16:20;7.90;99.90
19200;DHT22;9732;52.498;5.408;2023-04-25T01:18:50;8.00;99.90
19200;DHT22;9732;52.498;5.408;2023-04-25T01:21:19;8.00;99.90
19200;DHT22;9732;52.498;5.408;2023-04-25T01:23:46;8.00;99.90
19200;DHT22;9732;52.498;5.408;2023-04-25T01:26:14;8.00;99.90
19200;DHT22;9732;52.498;5.408;2023-04-25T01:28:40;8.00;99.90
19200;DHT22;9732;52.498;5.408;2023-04-25T01:31:07;8.10;99.90
19200;DHT22;9732;52.498;5.408;2023-04-25T01:33:35;8.10;99.90
19200;DHT22;9732;52.498;5.408;2023-04-25T01:36:02;8.00;99.90
19200;DHT22;9732;52.498;5.408;2023-04-25T01:38:30;8.00;99.90
19200;DHT22;9732;52.498;5.408;2023-04-25T01:40:57;7.90;99.90
19200;DHT22;9732;52.498;5.408;2023-04-25T01:43:24;7.90;99.90
19200;DHT22;9732;52.498;5.408;2023-04-25T01:45:52;7.90;99.90
19200;DHT22;9732;52.498;5.408;2023-04-25T01:48:19;7.90;99.90
19200;DHT22;9732;52.498;5.408;2023-04-25T01:50:45;7.90;99.90
19200;DHT22;9732;52.498;5.408;2023-04-25T01:53:13;7.90;99.90
19200;DHT22;9732;52.498;5.408;2023-04-25T01:55:42;7.90;99.90
19200;DHT22;9732;52.498;5.408;2023-04-25T01:58:09;7.90;99.90
19200;DHT22;9732;52.498;5.408;2023-04-25T02:00:38;7.80;99.90
19200;DHT22;9732;52.498;5.408;2023-04-25T02:03:06;7.90;99.90
19200;DHT22;9732;52.498;5.408;2023-04-25T02:05:36;7.90;99.90
19200;DHT22;9732;52.498;5.408;2023-04-25T02:08:05;8.00;99.90
19200;DHT22;9732;52.498;5.408;2023-04-25T02:10:32;8.00;99.90
19200;DHT22;9732;52.498;5.408;2023-04-25T02:13:00;8.00;99.90
19200;DHT22;9732;52.498;5.408;2023-04-25T02:15:27;8.00;99.90
19200;DHT22;9732;52.498;5.408;2023-04-25T02:17:53;7.90;99.90
19200;DHT22;9732;52.498;5.408;2023-04-25T02:20:21;7.90;99.90
19200;DHT22;9732;52.498;5.408;2023-04-25T02:22:48;7.90;99.90
19200;DHT22;9732;52.498;5.408;2023-04-25T02:25:15;7.90;99.90
19200;DHT22;9732;52.498;5.408;2023-04-25T02:27:42;7.90;99.90
19200;DHT22;9732;52.498;5.408;2023-04-25T02:30:11;7.90;99.90
19200;DHT22;9732;52.498;5.408;2023-04-25T02:32:38;8.00;99.90
19200;DHT22;9732;52.498;5.408;2023-04-25T02:35:05;8.00;99.90
19200;DHT22;9732;52.498;5.408;2023-04-25T02:37:33;8.00;99.90
19200;DHT22;9732;52.498;5.408;2023-04-25T02:40:00;8.10;99.90
19200;DHT22;9732;52.498;5.408;2023-04-25T02:42:27;8.00;99.90
19200;DHT22;9732;52.498;5.408;2023-04-25T02:44:54;8.00;99.90
19200;DHT22;9732;52.498;5.408;2023-04-25T02:47:22;8.00;99.90
19200;DHT22;9732;52.498;5.408;2023-04-25T02:49:49;8.00;99.90
19200;DHT22;9732;52.498;5.408;2023-04-25T02:52:15;8.00;99.90
19200;DHT22;9732;52.498;5.408;2023-04-25T02:54:43;8.00;99.90
19200;DHT22;9732;52.498;5.408;2023-04-25T02:57:11;7.90;99.90
19200;DHT22;9732;52.498;5.408;2023-04-25T02:59:38;7.90;99.90
19200;DHT22;9732;52.498;5.408;2023-04-25T03:02:05;7.90;99.90
19200;DHT22;9732;52.498;5.408;2023-04-25T03:04:34;7.90;99.90
19200;DHT22;9732;52.498;5.408;2023-04-25T03:07:01;7.90;99.90
19200;DHT22;9732;52.498;5.408;2023-04-25T03:09:29;7.90;99.90
19200;DHT22;9732;52.498;5.408;2023-04-25T03:11:56;7.90;99.90
19200;DHT22;9732;52.498;5.408;2023-04-25T03:14:23;8.00;99.90
19200;DHT22;9732;52.498;5.408;2023-04-25T03:16:51;7.80;99.90
19200;DHT22;9732;52.498;5.408;2023-04-25T03:19:17;7.80;99.90
19200;DHT22;9732;52.498;5.408;2023-04-25T03:21:47;7.70;99.90
19200;DHT22;9732;52.498;5.408;2023-04-25T03:24:14;7.60;99.90
19200;DHT22;9732;52.498;5.408;2023-04-25T03:26:41;7.60;99.90
19200;DHT22;9732;52.498;5.408;2023-04-25T03:29:08;7.50;99.90
19200;DHT22;9732;52.498;5.408;2023-04-25T03:31:37;7.60;99.90
19200;DHT22;9732;52.498;5.408;2023-04-25T03:34:03;7.60;99.90
19200;DHT22;9732;52.498;5.408;2023-04-25T03:36:30;7.60;99.90
19200;DHT22;9732;52.498;5.408;2023-04-25T03:39:00;7.70;99.90
19200;DHT22;9732;52.498;5.408;2023-04-25T03:41:27;7.70;99.90
19200;DHT22;9732;52.498;5.408;2023-04-25T03:43:55;7.80;99.90
19200;DHT22;9732;52.498;5.408;2023-04-25T03:46:22;7.80;99.90
19200;DHT22;9732;52.498;5.408;2023-04-25T03:48:49;7.70;99.90
19200;DHT22;9732;52.498;5.408;2023-04-25T03:51:16;7.70;99.90
19200;DHT22;9732;52.498;5.408;2023-04-25T03:53:44;7.90;99.90
19200;DHT22;9732;52.498;5.408;2023-04-25T03:56:12;7.80;99.90
19200;DHT22;9732;52.498;5.408;2023-04-25T03:58:39;7.80;99.90
19200;DHT22;9732;52.498;5.408;2023-04-25T04:01:06;7.80;99.90
19200;DHT22;9732;52.498;5.408;2023-04-25T04:03:33;7.80;99.90
19200;DHT22;9732;52.498;5.408;2023-04-25T04:06:02;7.80;99.90
19200;DHT22;9732;52.498;5.408;2023-04-25T04:08:29;7.80;99.90
19200;DHT22;9732;52.498;5.408;2023-04-25T04:10:56;7.80;99.90
19200;DHT22;9732;52.498;5.408;2023-04-25T04:13:26;7.80;99.90
19200;DHT22;9732;52.498;5.408;2023-04-25T04:15:53;7.70;99.90
19200;DHT22;9732;52.498;5.408;2023-04-25T04:18:21;7.70;99.90
19200;DHT22;9732;52.498;5.408;2023-04-25T04:20:49;7.70;99.90
19200;DHT22;9732;52.498;5.408;2023-04-25T04:23:17;7.70;99.90
19200;DHT22;9732;52.498;5.408;2023-04-25T04:25:43;7.80;99.90
19200;DHT22;9732;52.498;5.408;2023-04-25T04:28:11;7.80;99.90
19200;DHT22;9732;52.498;5.408;2023-04-25T04:30:40;7.70;99.90
19200;DHT22;9732;52.498;5.408;2023-04-25T04:33:07;7.80;99.90
19200;DHT22;9732;52.498;5.408;2023-04-25T04:35:35;7.70;99.90
19200;DHT22;9732;52.498;5.408;2023-04-25T04:38:02;7.80;99.90
19200;DHT22;9732;52.498;5.408;2023-04-25T04:40:29;7.70;99.90
19200;DHT22;9732;52.498;5.408;2023-04-25T04:42:57;7.80;99.90
19200;DHT22;9732;52.498;5.408;2023-04-25T04:45:24;7.70;99.90
19200;DHT22;9732;52.498;5.408;2023-04-25T04:47:55;7.80;99.90
19200;DHT22;9732;52.498;5.408;2023-04-25T04:50:22;7.80;99.90
19200;DHT22;9732;52.498;5.408;2023-04-25T04:52:49;7.80;99.90
19200;DHT22;9732;52.498;5.408;2023-04-25T04:55:16;7.80;99.90
19200;DHT22;9732;52.498;5.408;2023-04-25T04:57:44;7.80;99.90
19200;DHT22;9732;52.498;5.408;2023-04-25T05:00:13;7.80;99.90
19200;DHT22;9732;52.498;5.408;2023-04-25T05:02:42;7.80;99.90
19200;DHT22;9732;52.498;5.408;2023-04-25T05:05:11;7.80;99.90
19200;DHT22;9732;52.498;5.408;2023-04-25T05:07:38;7.90;99.90
19200;DHT22;9732;52.498;5.408;2023-04-25T05:10:07;7.90;99.90
19200;DHT22;9732;52.498;5.408;2023-04-25T05:12:34;7.80;99.90
19200;DHT22;9732;52.498;5.408;2023-04-25T05:15:02;7.80;99.90
19200;DHT22;9732;52.498;5.408;2023-04-25T05:17:29;7.80;99.90
19200;DHT22;9732;52.498;5.408;2023-04-25T05:19:56;7.80;99.90
19200;DHT22;9732;52.498;5.408;2023-04-25T05:22:25;7.90;99.90
19200;DHT22;9732;52.498;5.408;2023-04-25T05:24:53;7.80;99.90
19200;DHT22;9732;52.498;5.408;2023-04-25T05:27:20;7.80;99.90
19200;DHT22;9732;52.498;5.408;2023-04-25T05:29:48;7.70;99.90
19200;DHT22;9732;52.498;5.408;2023-04-25T05:32:15;7.60;99.90
19200;DHT22;9732;52.498;5.408;2023-04-25T05:34:42;7.60;99.90
19200;DHT22;9732;52.498;5.408;2023-04-25T05:37:09;7.70;99.90
19200;DHT22;9732;52.498;5.408;2023-04-25T05:39:37;7.60;99.90
19200;DHT22;9732;52.498;5.408;2023-04-25T05:42:04;7.60;99.90
19200;DHT22;9732;52.498;5.408;2023-04-25T05:44:32;7.60;99.90
19200;DHT22;9732;52.498;5.408;2023-04-25T05:46:59;7.60;99.90
19200;DHT22;9732;52.498;5.408;2023-04-25T05:49:28;7.70;99.90
19200;DHT22;9732;52.498;5.408;2023-04-25T05:51:56;7.70;99.90
19200;DHT22;9732;52.498;5.408;2023-04-25T05:54:24;7.70;99.90
19200;DHT22;9732;52.498;5.408;2023-04-25T05:56:53;7.80;99.90
19200;DHT22;9732;52.498;5.408;2023-04-25T05:59:20;7.80;99.90
19200;DHT22;9732;52.498;5.408;2023-04-25T06:01:49;7.80;99.90
19200;DHT22;9732;52.498;5.408;2023-04-25T06:04:17;7.80;99.90
19200;DHT22;9732;52.498;5.408;2023-04-25T06:06:44;7.80;99.90
19200;DHT22;9732;52.498;5.408;2023-04-25T06:09:11;7.90;99.90
19200;DHT22;9732;52.498;5.408;2023-04-25T06:11:39;7.90;99.90
19200;DHT22;9732;52.498;5.408;2023-04-25T06:14:07;7.90;99.90
19200;DHT22;9732;52.498;5.408;2023-04-25T06:16:34;7.90;99.90
19200;DHT22;9732;52.498;5.408;2023-04-25T06:19:02;8.00;99.90
19200;DHT22;9732;52.498;5.408;2023-04-25T06:21:29;8.00;99.90
19200;DHT22;9732;52.498;5.408;2023-04-25T06:23:56;8.10;99.90
19200;DHT22;9732;52.498;5.408;2023-04-25T06:26:23;8.10;99.90
19200;DHT22;9732;52.498;5.408;2023-04-25T06:28:51;8.10;99.90
19200;DHT22;9732;52.498;5.408;2023-04-25T06:31:19;8.20;99.90
19200;DHT22;9732;52.498;5.408;2023-04-25T06:33:46;8.10;99.90
19200;DHT22;9732;52.498;5.408;2023-04-25T06:36:15;8.10;99.90
19200;DHT22;9732;52.498;5.408;2023-04-25T06:38:41;8.20;99.90
19200;DHT22;9732;52.498;5.408;2023-04-25T06:41:09;8.30;99.90
19200;DHT22;9732;52.498;5.408;2023-04-25T06:43:36;8.40;99.90
19200;DHT22;9732;52.498;5.408;2023-04-25T06:46:04;8.40;99.90
19200;DHT22;9732;52.498;5.408;2023-04-25T06:48:32;8.30;99.90
19200;DHT22;9732;52.498;5.408;2023-04-25T06:50:59;8.20;99.90
19200;DHT22;9732;52.498;5.408;2023-04-25T06:53:26;8.20;99.90
19200;DHT22;9732;52.498;5.408;2023-04-25T06:55:54;8.20;99.90
19200;DHT22;9732;52.498;5.408;2023-04-25T06:58:21;8.20;99.90
19200;DHT22;9732;52.498;5.408;2023-04-25T07:00:48;8.20;99.90
19200;DHT22;9732;52.498;5.408;2023-04-25T07:03:15;8.20;99.90
19200;DHT22;9732;52.498;5.408;2023-04-25T07:05:45;8.20;99.90
19200;DHT22;9732;52.498;5.408;2023-04-25T07:08:12;8.30;99.90
19200;DHT22;9732;52.498;5.408;2023-04-25T07:10:40;8.40;99.90
19200;DHT22;9732;52.498;5.408;2023-04-25T07:13:08;8.50;99.90
19200;DHT22;9732;52.498;5.408;2023-04-25T07:15:34;8.40;99.90
19200;DHT22;9732;52.498;5.408;2023-04-25T07:18:02;8.40;99.90
19200;DHT22;9732;52.498;5.408;2023-04-25T07:20:29;8.00;99.90
19200;DHT22;9732;52.498;5.408;2023-04-25T07:22:57;7.80;99.90
19200;DHT22;9732;52.498;5.408;2023-04-25T07:25:25;7.70;99.90
19200;DHT22;9732;52.498;5.408;2023-04-25T07:27:52;7.60;99.90
19200;DHT22;9732;52.498;5.408;2023-04-25T07:30:19;7.60;99.90
19200;DHT22;9732;52.498;5.408;2023-04-25T07:32:46;7.70;99.90
19200;DHT22;9732;52.498;5.408;2023-04-25T07:35:14;7.90;99.90
19200;DHT22;9732;52.498;5.408;2023-04-25T07:37:41;8.00;99.90
19200;DHT22;9732;52.498;5.408;2023-04-25T07:40:15;8.20;99.90
19200;DHT22;9732;52.498;5.408;2023-04-25T07:42:42;8.30;99.90
19200;DHT22;9732;52.498;5.408;2023-04-25T07:45:10;8.30;99.90
19200;DHT22;9732;52.498;5.408;2023-04-25T07:47:37;8.40;99.90
19200;DHT22;9732;52.498;5.408;2023-04-25T07:50:05;8.50;99.90
19200;DHT22;9732;52.498;5.408;2023-04-25T07:52:33;8.50;99.90
19200;DHT22;9732;52.498;5.408;2023-04-25T07:55:01;8.50;99.90
19200;DHT22;9732;52.498;5.408;2023-04-25T07:57:30;8.40;99.90
19200;DHT22;9732;52.498;5.408;2023-04-25T07:59:57;8.40;99.90
19200;DHT22;9732;52.498;5.408;2023-04-25T08:02:24;8.50;99.90
19200;DHT22;9732;52.498;5.408;2023-04-25T08:04:54;8.60;99.90
19200;DHT22;9732;52.498;5.408;2023-04-25T08:07:21;8.80;99.90
19200;DHT22;9732;52.498;5.408;2023-04-25T08:09:47;8.90;99.90
19200;DHT22;9732;52.498;5.408;2023-04-25T08:12:15;9.00;99.90
19200;DHT22;9732;52.498;5.408;2023-04-25T08:14:44;9.00;99.90
19200;DHT22;9732;52.498;5.408;2023-04-25T08:17:11;9.00;99.90
19200;DHT22;9732;52.498;5.408;2023-04-25T08:19:38;9.10;99.90
19200;DHT22;9732;52.498;5.408;2023-04-25T08:22:06;9.20;99.90
19200;DHT22;9732;52.498;5.408;2023-04-25T08:24:33;9.20;99.90
19200;DHT22;9732;52.498;5.408;2023-04-25T08:26:59;9.30;99.90
19200;DHT22;9732;52.498;5.408;2023-04-25T08:29:27;9.30;99.90
19200;DHT22;9732;52.498;5.408;2023-04-25T08:31:55;9.30;99.90
19200;DHT22;9732;52.498;5.408;2023-04-25T08:34:22;9.30;99.90
19200;DHT22;9732;52.498;5.408;2023-04-25T08:36:50;9.40;99.90
19200;DHT22;9732;52.498;5.408;2023-04-25T08:39:17;9.40;99.90
19200;DHT22;9732;52.498;5.408;2023-04-25T08:41:44;9.60;99.90
19200;DHT22;9732;52.498;5.408;2023-04-25T08:44:12;9.80;99.90
19200;DHT22;9732;52.498;5.408;2023-04-25T08:46:41;9.80;99.90
19200;DHT22;9732;52.498;5.408;2023-04-25T08:49:10;9.70;99.90
19200;DHT22;9732;52.498;5.408;2023-04-25T08:51:45;9.50;99.90
19200;DHT22;9732;52.498;5.408;2023-04-25T08:54:14;9.30;99.90
19200;DHT22;9732;52.498;5.408;2023-04-25T08:56:44;9.00;99.90
19200;DHT22;9732;52.498;5.408;2023-04-25T08:59:12;8.60;99.90
19200;DHT22;9732;52.498;5.408;2023-04-25T09:01:40;8.40;99.90
19200;DHT22;9732;52.498;5.408;2023-04-25T09:04:09;8.30;99.90
19200;DHT22;9732;52.498;5.408;2023-04-25T09:06:37;8.20;99.90
19200;DHT22;9732;52.498;5.408;2023-04-25T09:09:04;8.30;99.90
19200;DHT22;9732;52.498;5.408;2023-04-25T09:11:32;8.40;99.90
19200;DHT22;9732;52.498;5.408;2023-04-25T09:14:19;8.90;99.90
19200;DHT22;9732;52.498;5.408;2023-04-25T09:17:01;9.00;99.90
19200;DHT22;9732;52.498;5.408;2023-04-25T09:19:30;9.00;99.90
19200;DHT22;9732;52.498;5.408;2023-04-25T09:21:59;9.20;99.90
19200;DHT22;9732;52.498;5.408;2023-04-25T09:24:33;9.30;99.90
19200;DHT22;9732;52.498;5.408;2023-04-25T09:27:04;9.70;99.90
19200;DHT22;9732;52.498;5.408;2023-04-25T09:29:33;10.00;99.90
19200;DHT22;9732;52.498;5.408;2023-04-25T09:32:17;10.20;99.90
19200;DHT22;9732;52.498;5.408;2023-04-25T09:34:47;9.90;99.90
19200;DHT22;9732;52.498;5.408;2023-04-25T09:37:18;9.70;99.90
19200;DHT22;9732;52.498;5.408;2023-04-25T09:39:48;9.80;99.90
19200;DHT22;9732;52.498;5.408;2023-04-25T09:42:16;10.10;99.90
19200;DHT22;9732;52.498;5.408;2023-04-25T09:44:45;10.20;99.90
19200;DHT22;9732;52.498;5.408;2023-04-25T09:47:14;10.30;99.90
19200;DHT22;9732;52.498;5.408;2023-04-25T09:49:42;10.60;99.90
19200;DHT22;9732;52.498;5.408;2023-04-25T09:52:14;10.70;99.90
19200;DHT22;9732;52.498;5.408;2023-04-25T09:54:42;11.00;99.90
19200;DHT22;9732;52.498;5.408;2023-04-25T09:57:12;11.40;99.90
19200;DHT22;9732;52.498;5.408;2023-04-25T09:59:43;11.90;99.90
19200;DHT22;9732;52.498;5.408;2023-04-25T10:02:15;12.20;99.90
19200;DHT22;9732;52.498;5.408;2023-04-25T10:04:47;12.50;99.90
19200;DHT22;9732;52.498;5.408;2023-04-25T10:07:18;12.70;99.90
19200;DHT22;9732;52.498;5.408;2023-04-25T10:09:48;13.00;99.90
19200;DHT22;9732;52.498;5.408;2023-04-25T10:12:17;13.00;99.90
19200;DHT22;9732;52.498;5.408;2023-04-25T10:14:45;13.50;99.90
19200;DHT22;9732;52.498;5.408;2023-04-25T10:17:14;13.70;99.90
19200;DHT22;9732;52.498;5.408;2023-04-25T10:19:41;13.50;99.90
19200;DHT22;9732;52.498;5.408;2023-04-25T10:22:13;13.40;99.90
19200;DHT22;9732;52.498;5.408;2023-04-25T10:24:43;13.50;99.90
19200;DHT22;9732;52.498;5.408;2023-04-25T10:27:12;13.80;99.90
19200;DHT22;9732;52.498;5.408;2023-04-25T10:29:41;13.80;99.90
19200;DHT22;9732;52.498;5.408;2023-04-25T10:32:09;14.00;99.90
19200;DHT22;9732;52.498;5.408;2023-04-25T10:34:41;13.90;99.90
19200;DHT22;9732;52.498;5.408;2023-04-25T10:37:09;13.90;99.90
19200;DHT22;9732;52.498;5.408;2023-04-25T10:39:38;13.40;99.90
19200;DHT22;9732;52.498;5.408;2023-04-25T10:42:09;12.70;99.90
19200;DHT22;9732;52.498;5.408;2023-04-25T10:44:37;12.50;99.90
19200;DHT22;9732;52.498;5.408;2023-04-25T10:47:07;12.60;99.90
19200;DHT22;9732;52.498;5.408;2023-04-25T10:49:37;12.40;99.90
19200;DHT22;9732;52.498;5.408;2023-04-25T10:52:18;12.10;99.90
19200;DHT22;9732;52.498;5.408;2023-04-25T10:54:51;12.00;99.90
19200;DHT22;9732;52.498;5.408;2023-04-25T10:57:31;12.30;99.90
19200;DHT22;9732;52.498;5.408;2023-04-25T11:00:01;12.90;99.90
19200;DHT22;9732;52.498;5.408;2023-04-25T11:02:32;13.50;99.90
19200;DHT22;9732;52.498;5.408;2023-04-25T11:05:05;14.00;99.90
19200;DHT22;9732;52.498;5.408;2023-04-25T11:07:39;14.40;99.90
19200;DHT22;9732;52.498;5.408;2023-04-25T11:10:10;14.70;99.90
19200;DHT22;9732;52.498;5.408;2023-04-25T11:12:38;15.00;99.90
19200;DHT22;9732;52.498;5.408;2023-04-25T11:15:07;15.40;99.90
19200;DHT22;9732;52.498;5.408;2023-04-25T11:17:34;15.30;99.90
19200;DHT22;9732;52.498;5.408;2023-04-25T11:20:03;15.10;99.90
19200;DHT22;9732;52.498;5.408;2023-04-25T11:22:38;15.10;99.90
19200;DHT22;9732;52.498;5.408;2023-04-25T11:25:09;15.10;99.90
19200;DHT22;9732;52.498;5.408;2023-04-25T11:27:49;14.40;99.90
19200;DHT22;9732;52.498;5.408;2023-04-25T11:30:17;13.90;99.90
19200;DHT22;9732;52.498;5.408;2023-04-25T11:32:44;13.10;99.90
19200;DHT22;9732;52.498;5.408;2023-04-25T11:35:13;11.90;99.90
19200;DHT22;9732;52.498;5.408;2023-04-25T11:37:41;11.30;99.90
19200;DHT22;9732;52.498;5.408;2023-04-25T11:40:10;10.80;99.90
19200;DHT22;9732;52.498;5.408;2023-04-25T11:42:39;10.80;99.90
19200;DHT22;9732;52.498;5.408;2023-04-25T11:45:09;11.00;99.90
19200;DHT22;9732;52.498;5.408;2023-04-25T11:47:38;11.00;99.90
19200;DHT22;9732;52.498;5.408;2023-04-25T11:50:07;11.10;99.90
19200;DHT22;9732;52.498;5.408;2023-04-25T11:52:40;11.30;99.90
19200;DHT22;9732;52.498;5.408;2023-04-25T11:55:08;12.00;99.90
19200;DHT22;9732;52.498;5.408;2023-04-25T11:57:39;12.60;99.90
19200;DHT22;9732;52.498;5.408;2023-04-25T12:00:11;13.60;99.90
19200;DHT22;9732;52.498;5.408;2023-04-25T12:02:42;14.50;99.90
19200;DHT22;9732;52.498;5.408;2023-04-25T12:05:09;13.40;99.90
19200;DHT22;9732;52.498;5.408;2023-04-25T12:07:37;12.40;99.90
19200;DHT22;9732;52.498;5.408;2023-04-25T12:10:06;12.10;99.90
19200;DHT22;9732;52.498;5.408;2023-04-25T12:12:35;11.90;99.90
19200;DHT22;9732;52.498;5.408;2023-04-25T12:15:10;11.40;99.90
19200;DHT22;9732;52.498;5.408;2023-04-25T12:17:38;10.90;99.90
19200;DHT22;9732;52.498;5.408;2023-04-25T12:20:08;10.50;99.90
19200;DHT22;9732;52.498;5.408;2023-04-25T12:22:36;10.50;99.90
19200;DHT22;9732;52.498;5.408;2023-04-25T12:25:03;10.40;99.90
19200;DHT22;9732;52.498;5.408;2023-04-25T12:27:31;10.60;99.90
19200;DHT22;9732;52.498;5.408;2023-04-25T12:29:59;11.40;99.90
19200;DHT22;9732;52.498;5.408;2023-04-25T12:32:28;12.70;99.90
19200;DHT22;9732;52.498;5.408;2023-04-25T12:34:56;13.90;99.90
19200;DHT22;9732;52.498;5.408;2023-04-25T12:37:24;14.70;99.90
19200;DHT22;9732;52.498;5.408;2023-04-25T12:39:51;15.50;99.90
19200;DHT22;9732;52.498;5.408;2023-04-25T12:42:19;15.30;99.90
19200;DHT22;9732;52.498;5.408;2023-04-25T12:44:47;14.70;99.90
19200;DHT22;9732;52.498;5.408;2023-04-25T12:47:14;14.30;99.90
19200;DHT22;9732;52.498;5.408;2023-04-25T12:49:42;14.20;99.90
19200;DHT22;9732;52.498;5.408;2023-04-25T12:52:10;14.20;99.90
19200;DHT22;9732;52.498;5.408;2023-04-25T12:54:37;14.20;99.90
19200;DHT22;9732;52.498;5.408;2023-04-25T12:57:04;14.50;99.90
19200;DHT22;9732;52.498;5.408;2023-04-25T12:59:31;14.80;99.90
19200;DHT22;9732;52.498;5.408;2023-04-25T13:01:57;15.10;99.90
19200;DHT22;9732;52.498;5.408;2023-04-25T13:04:25;14.80;99.90
19200;DHT22;9732;52.498;5.408;2023-04-25T13:06:53;13.70;99.90
19200;DHT22;9732;52.498;5.408;2023-04-25T13:09:21;13.00;99.90
19200;DHT22;9732;52.498;5.408;2023-04-25T13:11:49;13.10;99.90
19200;DHT22;9732;52.498;5.408;2023-04-25T13:14:16;13.30;99.90
19200;DHT22;9732;52.498;5.408;2023-04-25T13:16:43;13.60;99.90
19200;DHT22;9732;52.498;5.408;2023-04-25T13:19:09;13.90;99.90
19200;DHT22;9732;52.498;5.408;2023-04-25T13:21:38;14.30;99.90
19200;DHT22;9732;52.498;5.408;2023-04-25T13:24:07;14.60;99.90
19200;DHT22;9732;52.498;5.408;2023-04-25T13:26:35;15.00;99.90
19200;DHT22;9732;52.498;5.408;2023-04-25T13:29:04;15.50;99.90
19200;DHT22;9732;52.498;5.408;2023-04-25T13:31:31;14.80;99.90
19200;DHT22;9732;52.498;5.408;2023-04-25T13:33:57;13.80;99.90
19200;DHT22;9732;52.498;5.408;2023-04-25T13:36:24;12.90;99.90
19200;DHT22;9732;52.498;5.408;2023-04-25T13:38:51;12.20;99.90
19200;DHT22;9732;52.498;5.408;2023-04-25T13:41:20;11.60;99.90
19200;DHT22;9732;52.498;5.408;2023-04-25T13:43:47;11.20;99.90
19200;DHT22;9732;52.498;5.408;2023-04-25T13:46:15;11.00;99.90
19200;DHT22;9732;52.498;5.408;2023-04-25T13:48:42;11.10;99.90
19200;DHT22;9732;52.498;5.408;2023-04-25T13:51:13;11.80;99.90
19200;DHT22;9732;52.498;5.408;2023-04-25T13:53:42;12.10;99.90
19200;DHT22;9732;52.498;5.408;2023-04-25T13:56:10;11.90;99.90
19200;DHT22;9732;52.498;5.408;2023-04-25T13:58:39;11.90;99.90
19200;DHT22;9732;52.498;5.408;2023-04-25T14:01:07;12.90;99.90
19200;DHT22;9732;52.498;5.408;2023-04-25T14:03:35;14.00;99.90
19200;DHT22;9732;52.498;5.408;2023-04-25T14:06:02;14.70;99.90
19200;DHT22;9732;52.498;5.408;2023-04-25T14:08:29;15.10;99.90
19200;DHT22;9732;52.498;5.408;2023-04-25T14:10:57;15.20;99.90
19200;DHT22;9732;52.498;5.408;2023-04-25T14:13:23;15.20;99.90
19200;DHT22;9732;52.498;5.408;2023-04-25T14:15:53;15.30;99.90
19200;DHT22;9732;52.498;5.408;2023-04-25T14:18:21;15.50;99.90
19200;DHT22;9732;52.498;5.408;2023-04-25T14:20:48;15.40;99.90
19200;DHT22;9732;52.498;5.408;2023-04-25T14:23:15;15.20;99.90
19200;DHT22;9732;52.498;5.408;2023-04-25T14:25:43;14.60;99.90
19200;DHT22;9732;52.498;5.408;2023-04-25T14:28:10;14.10;99.90
19200;DHT22;9732;52.498;5.408;2023-04-25T14:30:37;14.10;99.90
19200;DHT22;9732;52.498;5.408;2023-04-25T14:33:06;14.40;99.90
19200;DHT22;9732;52.498;5.408;2023-04-25T14:35:33;14.00;99.90
19200;DHT22;9732;52.498;5.408;2023-04-25T14:38:01;13.60;99.90
19200;DHT22;9732;52.498;5.408;2023-04-25T14:40:29;12.70;99.90
19200;DHT22;9732;52.498;5.408;2023-04-25T14:42:56;12.30;99.90
19200;DHT22;9732;52.498;5.408;2023-04-25T14:45:23;12.10;99.90
19200;DHT22;9732;52.498;5.408;2023-04-25T14:47:50;11.90;99.90
19200;DHT22;9732;52.498;5.408;2023-04-25T14:50:20;11.60;99.90
19200;DHT22;9732;52.498;5.408;2023-04-25T14:52:47;10.80;99.90
19200;DHT22;9732;52.498;5.408;2023-04-25T14:55:14;10.20;99.90
19200;DHT22;9732;52.498;5.408;2023-04-25T14:57:42;9.90;99.90
19200;DHT22;9732;52.498;5.408;2023-04-25T15:00:10;9.90;99.90
19200;DHT22;9732;52.498;5.408;2023-04-25T15:02:41;10.10;99.90
19200;DHT22;9732;52.498;5.408;2023-04-25T15:05:09;10.40;99.90
19200;DHT22;9732;52.498;5.408;2023-04-25T15:07:37;10.80;99.90
19200;DHT22;9732;52.498;5.408;2023-04-25T15:10:05;11.20;99.90
19200;DHT22;9732;52.498;5.408;2023-04-25T15:12:36;11.60;99.90
19200;DHT22;9732;52.498;5.408;2023-04-25T15:15:04;11.90;99.90
19200;DHT22;9732;52.498;5.408;2023-04-25T15:17:32;11.90;99.90
19200;DHT22;9732;52.498;5.408;2023-04-25T15:19:59;11.60;99.90
19200;DHT22;9732;52.498;5.408;2023-04-25T15:22:26;11.30;99.90
19200;DHT22;9732;52.498;5.408;2023-04-25T15:24:56;10.90;99.90
19200;DHT22;9732;52.498;5.408;2023-04-25T15:27:23;10.80;99.90
19200;DHT22;9732;52.498;5.408;2023-04-25T15:29:50;11.30;99.90
19200;DHT22;9732;52.498;5.408;2023-04-25T15:32:16;11.70;99.90
19200;DHT22;9732;52.498;5.408;2023-04-25T15:34:43;11.90;99.90
19200;DHT22;9732;52.498;5.408;2023-04-25T15:37:10;11.60;99.90
19200;DHT22;9732;52.498;5.408;2023-04-25T15:39:37;11.50;99.90
19200;DHT22;9732;52.498;5.408;2023-04-25T15:42:05;11.40;99.90
19200;DHT22;9732;52.498;5.408;2023-04-25T15:44:34;11.30;99.90
19200;DHT22;9732;52.498;5.408;2023-04-25T15:47:00;11.40;99.90
19200;DHT22;9732;52.498;5.408;2023-04-25T15:49:27;11.30;99.90
19200;DHT22;9732;52.498;5.408;2023-04-25T15:51:55;11.40;99.90
19200;DHT22;9732;52.498;5.408;2023-04-25T15:54:23;11.40;99.90
19200;DHT22;9732;52.498;5.408;2023-04-25T15:56:51;11.40;99.90
19200;DHT22;9732;52.498;5.408;2023-04-25T15:59:19;11.20;99.90